Time;durP1;ratioP1;P1;durP2;ratioP2;P2;SDS_P1;SDS_P2;PMS_P1;PMS_P2;Temp;Humidity;BMP_temperature;BMP_pressure;BME280_temperature;BME280_humidity;BME280_pressure;Samples;Min_cycle;Max_cycle;Signal;HPM_P1;HPM_P2
2023/08/08 00:01:25;;;;;;;16.95;11.18;;;15.00;99.90;;;;;;5149187;27;20039;-56
2023/08/08 00:03:51;;;;;;;17.77;11.03;;;15.00;99.90;;;;;;5058863;27;1379448;-58
2023/08/08 00:06:17;;;;;;;14.25;10.55;;;14.90;99.90;;;;;;5067265;28;20051;-58
2023/08/08 00:08:43;;;;;;;13.85;9.88;;;14.90;99.90;;;;;;5036844;28;20388;-57
2023/08/08 00:11:09;;;;;;;14.77;9.57;;;14.90;99.90;;;;;;5035277;28;20191;-58
2023/08/08 00:13:34;;;;;;;17.13;12.02;;;14.90;99.90;;;;;;5038467;28;20048;-57
2023/08/08 00:16:00;;;;;;;13.60;11.00;;;14.90;99.90;;;;;;5036621;28;20034;-58
2023/08/08 00:18:26;;;;;;;14.52;11.48;;;14.90;99.90;;;;;;5056155;28;20063;-58
2023/08/08 00:20:52;;;;;;;15.68;11.23;;;14.90;99.90;;;;;;5055819;28;20040;-58
2023/08/08 00:23:18;;;;;;;14.48;11.30;;;14.90;99.90;;;;;;5082303;28;20047;-57
2023/08/08 00:25:49;;;;;;;17.10;10.20;;;14.90;99.90;;;;;;5078282;28;20043;-58
2023/08/08 00:28:16;;;;;;;15.23;11.63;;;14.90;99.90;;;;;;5081588;28;20132;-57
2023/08/08 00:30:42;;;;;;;14.75;11.15;;;14.80;99.90;;;;;;5047539;28;20127;-57
2023/08/08 00:33:08;;;;;;;17.75;11.90;;;14.80;99.90;;;;;;5020071;28;20042;-57
2023/08/08 00:35:34;;;;;;;17.73;11.77;;;14.80;99.90;;;;;;5041751;28;20041;-57
2023/08/08 00:38:00;;;;;;;15.52;11.40;;;14.90;99.90;;;;;;5035683;28;20053;-57
2023/08/08 00:40:26;;;;;;;18.90;12.55;;;14.90;99.90;;;;;;5057227;28;20123;-57
2023/08/08 00:42:52;;;;;;;21.08;12.45;;;14.90;99.90;;;;;;5050099;28;20068;-57
2023/08/08 00:45:18;;;;;;;17.13;11.85;;;14.80;99.90;;;;;;5078157;28;20438;-58
2023/08/08 00:47:45;;;;;;;18.70;12.40;;;14.80;99.90;;;;;;5078654;28;20136;-57
2023/08/08 00:50:11;;;;;;;18.42;13.27;;;14.80;99.90;;;;;;5078359;28;20401;-57
2023/08/08 00:52:39;;;;;;;16.65;12.20;;;14.80;99.90;;;;;;5056419;28;20044;-57
2023/08/08 00:55:06;;;;;;;17.35;12.35;;;14.80;99.90;;;;;;5058305;28;20040;-57
2023/08/08 00:57:32;;;;;;;18.80;11.63;;;14.90;99.90;;;;;;5076275;28;20136;-57
2023/08/08 00:59:58;;;;;;;16.65;11.50;;;14.90;99.90;;;;;;5032452;28;20403;-58
2023/08/08 01:02:23;;;;;;;14.82;12.23;;;14.90;99.90;;;;;;5031122;28;20044;-58
2023/08/08 01:04:49;;;;;;;16.38;11.48;;;14.90;99.90;;;;;;5068464;28;20033;-58
2023/08/08 01:07:25;;;;;;;15.95;12.27;;;14.80;99.90;;;;;;5065435;28;20111;-58
2023/08/08 01:10:04;;;;;;;19.08;11.60;;;14.80;99.90;;;;;;5020704;28;20380;-58
2023/08/08 01:12:31;;;;;;;22.42;13.27;;;14.90;99.90;;;;;;5023714;28;20074;-58
2023/08/08 01:14:57;;;;;;;19.80;14.90;;;14.90;99.90;;;;;;5048444;28;20041;-58
2023/08/08 01:17:25;;;;;;;21.95;14.48;;;14.80;99.90;;;;;;5060193;28;20073;-58
2023/08/08 01:19:52;;;;;;;20.73;14.88;;;14.80;99.90;;;;;;5036492;28;20040;-58
2023/08/08 01:22:37;;;;;;;28.08;14.98;;;14.70;99.90;;;;;;5067487;28;20036;-57
2023/08/08 01:25:04;;;;;;;24.67;14.93;;;14.60;99.90;;;;;;5057508;28;20052;-57
2023/08/08 01:27:31;;;;;;;24.67;15.48;;;14.60;99.90;;;;;;5056088;28;20098;-57
2023/08/08 01:29:57;;;;;;;26.83;15.30;;;14.70;99.90;;;;;;5080313;28;20041;-58
2023/08/08 01:32:23;;;;;;;24.67;14.00;;;14.70;99.90;;;;;;5062484;28;20121;-58
2023/08/08 01:34:49;;;;;;;30.73;15.68;;;14.60;99.90;;;;;;5075511;28;20131;-58
2023/08/08 01:37:23;;;;;;;25.83;14.60;;;14.70;99.90;;;;;;5055764;28;20051;-58
2023/08/08 01:39:50;;;;;;;27.25;14.40;;;14.60;99.90;;;;;;5075288;28;20040;-58
2023/08/08 01:42:21;;;;;;;22.23;12.77;;;14.50;99.90;;;;;;5075172;28;20047;-57
2023/08/08 01:44:48;;;;;;;26.90;13.80;;;14.50;99.90;;;;;;5023709;28;20049;-57
2023/08/08 01:47:14;;;;;;;17.90;11.43;;;14.40;99.90;;;;;;5043189;28;20120;-57
2023/08/08 01:49:40;;;;;;;30.38;12.48;;;14.40;99.90;;;;;;5064062;28;20429;-57
2023/08/08 01:52:06;;;;;;;25.10;11.65;;;14.40;99.90;;;;;;5054446;28;20048;-58
2023/08/08 01:54:32;;;;;;;18.80;11.55;;;14.40;99.90;;;;;;5072220;28;20052;-57
2023/08/08 01:56:58;;;;;;;19.52;10.15;;;14.30;99.90;;;;;;5075109;28;20083;-57
2023/08/08 01:59:24;;;;;;;17.90;10.85;;;14.30;99.90;;;;;;5031983;28;20780;-58
2023/08/08 02:01:50;;;;;;;16.77;9.82;;;14.20;99.90;;;;;;5013346;28;28681;-58
2023/08/08 02:04:16;;;;;;;19.42;10.18;;;14.10;99.90;;;;;;5013815;28;22248;-58
2023/08/08 02:06:42;;;;;;;18.75;10.45;;;14.10;99.90;;;;;;5063193;28;22598;-58
2023/08/08 02:09:08;;;;;;;21.70;9.65;;;14.10;99.90;;;;;;5060175;28;22884;-57
2023/08/08 02:11:34;;;;;;;16.85;10.32;;;14.10;99.90;;;;;;5023025;28;24652;-58
2023/08/08 02:14:00;;;;;;;23.08;10.23;;;14.10;99.90;;;;;;4986385;28;24516;-58
2023/08/08 02:16:26;;;;;;;20.20;11.18;;;14.00;99.90;;;;;;5030134;28;34935;-57
2023/08/08 02:18:53;;;;;;;20.88;11.55;;;13.90;99.90;;;;;;5047387;28;36559;-57
2023/08/08 02:21:19;;;;;;;23.02;11.35;;;13.90;99.90;;;;;;5019672;28;37448;-57
2023/08/08 02:23:44;;;;;;;24.50;11.35;;;13.90;99.90;;;;;;5027556;28;37956;-58
2023/08/08 02:26:10;;;;;;;22.90;11.40;;;13.80;99.90;;;;;;5022211;28;39067;-58
2023/08/08 02:28:36;;;;;;;18.73;10.02;;;13.80;99.90;;;;;;5028003;28;39678;-57
2023/08/08 02:31:03;;;;;;;23.20;10.95;;;13.90;99.90;;;;;;5051149;28;25331;-57
2023/08/08 02:33:29;;;;;;;19.65;9.88;;;13.90;99.90;;;;;;5057972;28;41180;-58
2023/08/08 02:35:55;;;;;;;24.40;10.65;;;13.80;99.90;;;;;;5058218;28;41240;-57
2023/08/08 02:38:21;;;;;;;26.70;11.55;;;13.70;99.90;;;;;;5063802;28;41853;-57
2023/08/08 02:40:47;;;;;;;22.95;10.68;;;13.70;99.90;;;;;;5046344;28;43529;-57
2023/08/08 02:43:12;;;;;;;20.65;10.20;;;13.60;99.90;;;;;;5060412;28;43716;-57
2023/08/08 02:45:38;;;;;;;21.23;9.60;;;13.60;99.90;;;;;;5046948;28;45970;-57
2023/08/08 02:48:05;;;;;;;21.42;9.45;;;13.50;99.90;;;;;;5050960;28;25375;-57
2023/08/08 02:50:31;;;;;;;22.17;9.77;;;13.50;99.90;;;;;;5019633;28;47832;-57
2023/08/08 02:52:57;;;;;;;17.38;9.52;;;13.50;99.90;;;;;;5031086;28;49276;-57
2023/08/08 02:55:27;;;;;;;17.98;8.93;;;13.40;99.90;;;;;;5023832;28;49876;-57
2023/08/08 02:57:53;;;;;;;23.25;10.00;;;13.40;99.90;;;;;;5028250;28;49147;-57
2023/08/08 03:00:20;;;;;;;18.48;10.98;;;13.30;99.90;;;;;;5007075;28;50449;-57
2023/08/08 03:02:49;;;;;;;17.17;8.33;;;13.30;99.90;;;;;;4999740;28;48897;-57
2023/08/08 03:05:16;;;;;;;17.20;9.52;;;13.40;99.90;;;;;;4990485;28;48719;-57
2023/08/08 03:07:42;;;;;;;21.35;9.75;;;13.40;99.90;;;;;;5013461;28;49478;-57
2023/08/08 03:10:10;;;;;;;16.80;9.43;;;13.30;99.90;;;;;;4974024;28;34060;-58
2023/08/08 03:12:38;;;;;;;16.15;8.40;;;13.20;99.90;;;;;;5012325;28;50305;-57
2023/08/08 03:15:05;;;;;;;19.15;10.43;;;13.20;99.90;;;;;;4962136;28;60600;-57
2023/08/08 03:17:32;;;;;;;17.85;8.63;;;13.30;99.90;;;;;;4977973;28;49946;-57
2023/08/08 03:19:59;;;;;;;20.42;8.90;;;13.30;99.90;;;;;;5020505;28;62562;-57
2023/08/08 03:22:26;;;;;;;18.92;9.20;;;13.40;99.90;;;;;;4989396;28;50512;-57
2023/08/08 03:24:52;;;;;;;14.75;7.68;;;13.40;99.90;;;;;;4986795;28;50297;-57
2023/08/08 03:27:18;;;;;;;15.70;7.97;;;13.50;99.90;;;;;;5009882;28;67224;-57
2023/08/08 03:29:48;;;;;;;17.73;8.80;;;13.50;99.90;;;;;;4944313;28;69670;-58
2023/08/08 03:32:16;;;;;;;13.63;8.52;;;13.40;99.90;;;;;;4906387;28;50575;-58
2023/08/08 03:34:42;;;;;;;19.65;10.57;;;13.30;99.90;;;;;;4928501;28;71719;-58
2023/08/08 03:37:08;;;;;;;18.58;9.73;;;13.30;99.90;;;;;;4897688;28;74359;-58
2023/08/08 03:39:35;;;;;;;19.00;9.50;;;13.40;99.90;;;;;;4949703;28;49171;-57
2023/08/08 03:42:01;;;;;;;21.90;9.38;;;13.50;99.90;;;;;;4951746;28;49263;-58
2023/08/08 03:44:27;;;;;;;17.90;8.88;;;13.60;99.90;;;;;;4958011;28;29414;-58
2023/08/08 03:46:53;;;;;;;19.55;8.75;;;13.60;99.90;;;;;;4954670;28;49504;-57
2023/08/08 03:49:19;;;;;;;26.73;12.32;;;13.60;99.90;;;;;;4991559;28;49024;-57
2023/08/08 03:51:45;;;;;;;23.30;11.65;;;13.60;99.90;;;;;;4970901;28;50007;-57
2023/08/08 03:54:11;;;;;;;25.10;11.23;;;13.70;99.90;;;;;;4965376;28;50016;-58
2023/08/08 03:56:37;;;;;;;19.02;11.35;;;13.60;99.90;;;;;;4960109;28;33919;-57
2023/08/08 03:59:03;;;;;;;21.98;10.57;;;13.60;99.90;;;;;;4959321;28;24754;-57
2023/08/08 04:01:28;;;;;;;21.85;10.02;;;13.60;99.90;;;;;;4955084;28;49278;-57
2023/08/08 04:03:55;;;;;;;22.25;9.85;;;13.60;99.90;;;;;;5009168;28;48781;-58
2023/08/08 04:06:21;;;;;;;15.27;10.00;;;13.50;99.90;;;;;;5040671;28;49236;-57
2023/08/08 04:08:47;;;;;;;20.42;10.70;;;13.40;99.90;;;;;;5005933;28;35382;-57
2023/08/08 04:11:13;;;;;;;22.50;11.05;;;13.50;99.90;;;;;;5020025;28;48102;-57
2023/08/08 04:13:39;;;;;;;24.25;11.32;;;13.50;99.90;;;;;;5035242;28;36417;-57
2023/08/08 04:16:05;;;;;;;21.90;12.55;;;13.60;99.90;;;;;;5007379;28;48468;-58
2023/08/08 04:18:31;;;;;;;21.60;11.50;;;13.60;99.90;;;;;;4995060;28;49157;-57
2023/08/08 04:20:57;;;;;;;18.45;11.30;;;13.70;99.90;;;;;;5030700;28;49480;-57
2023/08/08 04:23:25;;;;;;;18.58;11.82;;;13.70;99.90;;;;;;5031782;28;49734;-58
2023/08/08 04:25:54;;;;;;;19.55;11.13;;;13.70;99.90;;;;;;5030101;28;49509;-57
2023/08/08 04:28:20;;;;;;;22.52;11.85;;;13.70;99.90;;;;;;5021732;28;49370;-58
2023/08/08 04:30:46;;;;;;;22.50;11.32;;;13.60;99.90;;;;;;5020879;28;41609;-57
2023/08/08 04:33:12;;;;;;;20.17;11.77;;;13.60;99.90;;;;;;5013089;28;49607;-57
2023/08/08 04:35:38;;;;;;;19.48;11.90;;;13.60;99.90;;;;;;4996398;28;49513;-57
2023/08/08 04:38:04;;;;;;;23.88;12.88;;;13.70;99.90;;;;;;5012936;28;50323;-57
2023/08/08 04:40:30;;;;;;;24.48;13.27;;;;;;;;;;5036551;28;49723;-57
2023/08/08 04:42:57;;;;;;;25.50;12.13;;;;;;;;;;5017276;28;45716;-58
2023/08/08 04:45:23;;;;;;;26.48;13.07;;;14.10;99.90;;;;;;5026402;28;49469;-58
2023/08/08 04:47:49;;;;;;;20.67;12.68;;;14.10;99.90;;;;;;5011307;28;50308;-58
2023/08/08 04:50:15;;;;;;;30.30;14.90;;;14.10;99.90;;;;;;5005755;28;50647;-58
2023/08/08 04:52:41;;;;;;;26.65;13.90;;;14.20;99.90;;;;;;4978280;28;74895;-58
2023/08/08 04:55:07;;;;;;;23.25;13.38;;;14.30;99.90;;;;;;4978378;28;98685;-57
2023/08/08 04:57:33;;;;;;;31.73;14.93;;;14.40;99.90;;;;;;5017815;28;49722;-58
2023/08/08 05:00:04;;;;;;;29.30;14.95;;;14.40;99.90;;;;;;5024101;28;49430;-57
2023/08/08 05:02:30;;;;;;;30.63;15.65;;;14.40;99.90;;;;;;5020659;28;49520;-57
2023/08/08 05:04:56;;;;;;;27.35;14.75;;;14.60;99.90;;;;;;5005382;28;49377;-57
2023/08/08 05:07:22;;;;;;;25.80;15.23;;;14.70;99.90;;;;;;5023427;28;49129;-58
2023/08/08 05:09:48;;;;;;;26.30;15.73;;;14.70;99.90;;;;;;5030806;28;49184;-58
2023/08/08 05:12:14;;;;;;;32.15;18.08;;;14.70;99.90;;;;;;5015295;28;49537;-57
2023/08/08 05:14:40;;;;;;;28.17;16.50;;;14.70;99.90;;;;;;5010198;28;49502;-57
2023/08/08 05:17:06;;;;;;;28.23;16.85;;;14.80;99.90;;;;;;4984043;28;48737;-58
2023/08/08 05:19:31;;;;;;;35.28;19.20;;;14.90;99.90;;;;;;5015954;28;48989;-57
2023/08/08 05:21:57;;;;;;;38.10;18.98;;;14.80;99.90;;;;;;5011453;28;48828;-57
2023/08/08 05:24:23;;;;;;;34.13;17.83;;;14.90;99.90;;;;;;4977601;28;48802;-57
2023/08/08 05:26:50;;;;;;;31.27;17.10;;;;;;;;;;4999854;28;46920;-58
2023/08/08 05:29:16;;;;;;;34.65;19.30;;;;;;;;;;5007623;28;49324;-58
2023/08/08 05:31:42;;;;;;;34.17;18.42;;;15.20;99.90;;;;;;4999560;28;49789;-58
2023/08/08 05:34:08;;;;;;;32.15;17.55;;;15.20;99.90;;;;;;5000623;28;74050;-57
2023/08/08 05:36:34;;;;;;;29.60;17.38;;;15.30;99.90;;;;;;5005799;28;50128;-57
2023/08/08 05:39:00;;;;;;;31.70;17.83;;;15.40;99.90;;;;;;5001933;28;74367;-58
2023/08/08 05:44:14;;;;;;;30.77;18.67;;;15.50;99.90;;;;;;5155060;27;20146;-59
2023/08/08 05:46:39;;;;;;;35.97;19.30;;;15.70;99.90;;;;;;5120592;27;20040;-57
2023/08/08 05:49:06;;;;;;;32.20;19.25;;;15.70;99.90;;;;;;5104504;28;20040;-57
2023/08/08 05:51:32;;;;;;;34.00;19.48;;;15.50;99.90;;;;;;5120468;27;20043;-57
2023/08/08 05:53:58;;;;;;;35.97;21.67;;;15.50;99.90;;;;;;5099762;28;20056;-57
2023/08/08 05:56:24;;;;;;;39.22;22.05;;;15.60;99.90;;;;;;5088915;28;20143;-57
2023/08/08 05:58:51;;;;;;;39.75;23.20;;;15.60;99.90;;;;;;5100215;28;20081;-57
2023/08/08 06:01:17;;;;;;;39.40;23.55;;;15.60;99.90;;;;;;5127911;27;20051;-57
2023/08/08 06:03:42;;;;;;;36.50;22.05;;;15.50;99.90;;;;;;5109394;27;20058;-57
2023/08/08 06:06:08;;;;;;;40.83;23.40;;;15.70;99.90;;;;;;5083301;28;20111;-57
2023/08/08 06:08:34;;;;;;;42.03;24.58;;;15.70;99.90;;;;;;5107911;27;20051;-57
2023/08/08 06:11:00;;;;;;;43.25;24.45;;;16.00;99.90;;;;;;5096972;27;20093;-57
2023/08/08 06:13:26;;;;;;;37.95;23.17;;;16.00;99.90;;;;;;5104804;27;20055;-57
2023/08/08 06:15:52;;;;;;;37.97;22.98;;;16.20;99.90;;;;;;5115648;27;20070;-57
2023/08/08 06:18:18;;;;;;;45.58;24.45;;;16.30;99.90;;;;;;5116489;27;20039;-57
2023/08/08 06:20:44;;;;;;;39.10;23.50;;;16.30;99.90;;;;;;5121123;27;20034;-58
2023/08/08 06:23:11;;;;;;;45.40;22.40;;;16.40;99.90;;;;;;5104671;27;20051;-57
2023/08/08 06:25:38;;;;;;;43.53;24.55;;;16.40;99.90;;;;;;5106669;27;20399;-58
2023/08/08 06:28:05;;;;;;;39.40;23.05;;;16.60;99.90;;;;;;5121174;27;20051;-57
2023/08/08 06:30:30;;;;;;;37.50;21.92;;;16.70;99.90;;;;;;5119487;27;20386;-57
2023/08/08 06:32:56;;;;;;;43.10;23.10;;;16.80;99.90;;;;;;5101261;27;20096;-57
2023/08/08 06:35:23;;;;;;;31.15;20.38;;;16.70;99.90;;;;;;5101527;28;20052;-57
2023/08/08 06:37:49;;;;;;;32.15;18.92;;;17.00;99.90;;;;;;5099270;27;20039;-58
2023/08/08 06:40:15;;;;;;;30.58;18.35;;;17.10;99.90;;;;;;5111786;27;20050;-57
2023/08/08 06:42:41;;;;;;;31.77;19.02;;;17.20;99.90;;;;;;5102091;27;20048;-57
2023/08/08 06:45:09;;;;;;;33.00;17.52;;;17.20;99.90;;;;;;5119661;27;20108;-57
2023/08/08 06:47:36;;;;;;;28.23;17.50;;;17.00;99.90;;;;;;5129734;27;20054;-57
2023/08/08 06:50:02;;;;;;;29.00;18.08;;;17.20;99.90;;;;;;5103693;27;20054;-57
2023/08/08 06:52:32;;;;;;;29.58;17.05;;;17.40;99.90;;;;;;5107453;27;20042;-57
2023/08/08 06:55:01;;;;;;;32.03;16.92;;;17.60;99.90;;;;;;5097352;27;20051;-57
2023/08/08 06:57:32;;;;;;;24.35;15.80;;;17.60;99.90;;;;;;5093252;28;20133;-57
2023/08/08 06:59:59;;;;;;;32.40;16.10;;;17.80;99.90;;;;;;5078306;28;20071;-57
2023/08/08 07:02:25;;;;;;;26.92;15.73;;;17.40;99.90;;;;;;5020180;28;20072;-57
2023/08/08 07:04:51;;;;;;;27.63;15.48;;;17.30;99.90;;;;;;5020535;28;20057;-57
2023/08/08 07:07:17;;;;;;;21.40;14.40;;;17.60;99.90;;;;;;5043396;28;20044;-57
2023/08/08 07:09:43;;;;;;;25.58;15.88;;;17.60;99.90;;;;;;5029925;28;20491;-57
2023/08/08 07:12:09;;;;;;;25.50;14.38;;;17.80;99.90;;;;;;5054831;28;20056;-57
2023/08/08 07:14:35;;;;;;;29.02;15.57;;;17.90;99.90;;;;;;5037748;28;20045;-59
2023/08/08 07:17:03;;;;;;;23.17;15.70;;;18.30;99.90;;;;;;5037928;28;20044;-59
2023/08/08 07:19:29;;;;;;;32.00;16.95;;;18.60;99.90;;;;;;5091960;28;20050;-59
2023/08/08 07:21:55;;;;;;;28.02;15.30;;;18.90;99.90;;;;;;5098585;28;20625;-59
2023/08/08 07:24:22;;;;;;;23.45;14.98;;;19.40;99.90;;;;;;5075071;28;21964;-59
2023/08/08 07:27:00;;;;;;;21.83;13.32;;;19.70;99.90;;;;;;5044952;28;21403;-59
2023/08/08 07:29:26;;;;;;;25.40;13.32;;;20.00;99.90;;;;;;4977965;28;22763;-59
2023/08/08 07:31:53;;;;;;;20.02;10.80;;;20.60;99.90;;;;;;5026342;28;22333;-59
2023/08/08 07:34:20;;;;;;;22.35;11.10;;;21.00;99.90;;;;;;5085128;28;22397;-59
2023/08/08 07:36:47;;;;;;;24.35;8.77;;;21.50;99.90;;;;;;5066568;28;22807;-59
2023/08/08 07:39:13;;;;;;;13.15;6.90;;;21.30;97.00;;;;;;5065795;28;23457;-59
2023/08/08 07:41:39;;;;;;;11.85;7.05;;;21.60;94.50;;;;;;5002774;28;24188;-59
2023/08/08 07:44:05;;;;;;;14.43;7.70;;;21.60;92.80;;;;;;5026765;28;24443;-59
2023/08/08 07:46:32;;;;;;;10.45;7.47;;;21.70;92.90;;;;;;5022771;28;27065;-59
2023/08/08 07:49:02;;;;;;;7.85;5.10;;;22.10;92.80;;;;;;5052012;28;27546;-59
2023/08/08 07:51:28;;;;;;;17.00;7.65;;;21.60;87.80;;;;;;5064767;28;27907;-59
2023/08/08 07:53:54;;;;;;;10.40;6.50;;;22.20;90.70;;;;;;5050580;28;28824;-59
2023/08/08 07:56:20;;;;;;;9.07;6.00;;;21.50;89.10;;;;;;5071291;28;29197;-58
2023/08/08 07:58:48;;;;;;;5.72;3.10;;;21.60;89.80;;;;;;5061300;28;30238;-58
2023/08/08 08:01:14;;;;;;;3.70;2.30;;;21.80;83.60;;;;;;5049503;28;30579;-58
2023/08/08 08:03:40;;;;;;;3.67;1.52;;;22.50;77.30;;;;;;5048731;28;32327;-58
2023/08/08 08:06:06;;;;;;;2.33;1.75;;;22.90;74.10;;;;;;5066881;28;32797;-58
2023/08/08 08:08:32;;;;;;;2.53;1.50;;;23.20;69.70;;;;;;5044208;28;33785;-58
2023/08/08 08:10:59;;;;;;;4.57;2.15;;;23.20;65.70;;;;;;5021993;28;35549;-59
2023/08/08 08:13:26;;;;;;;4.13;1.60;;;23.00;66.50;;;;;;5052251;28;35143;-58
2023/08/08 08:15:52;;;;;;;4.03;1.67;;;23.20;64.00;;;;;;5055791;28;36237;-58
2023/08/08 08:18:19;;;;;;;2.83;1.92;;;23.40;63.60;;;;;;5047613;28;38093;-59
2023/08/08 08:20:46;;;;;;;6.72;2.00;;;23.60;65.90;;;;;;5044164;28;37803;-58
2023/08/08 08:23:12;;;;;;;5.82;1.95;;;23.30;70.60;;;;;;5043852;28;38738;-58
2023/08/08 08:25:40;;;;;;;2.88;2.28;;;24.00;65.00;;;;;;5058482;28;39836;-59
2023/08/08 08:28:06;;;;;;;2.90;2.03;;;23.20;59.50;;;;;;5056632;28;41128;-58
2023/08/08 08:30:32;;;;;;;1.88;1.55;;;21.70;64.20;;;;;;5052728;28;24987;-59
2023/08/08 08:32:59;;;;;;;2.55;1.90;;;21.90;63.10;;;;;;5055856;28;25286;-58
2023/08/08 08:35:25;;;;;;;5.07;1.77;;;22.90;64.60;;;;;;5042173;28;24715;-59
2023/08/08 08:37:51;;;;;;;4.90;1.60;;;23.80;64.90;;;;;;5035468;28;43247;-59
2023/08/08 08:40:17;;;;;;;2.90;1.67;;;24.10;57.30;;;;;;5060962;28;24647;-59
2023/08/08 08:42:46;;;;;;;2.70;1.80;;;23.20;57.40;;;;;;5077530;27;24140;-59
2023/08/08 08:45:14;;;;;;;2.80;2.00;;;23.00;59.70;;;;;;5055045;28;23897;-59
2023/08/08 08:47:42;;;;;;;3.90;1.90;;;23.80;58.80;;;;;;5056365;28;23902;-58
2023/08/08 08:50:08;;;;;;;2.90;1.50;;;24.40;58.80;;;;;;5070226;28;23450;-59
2023/08/08 08:52:35;;;;;;;3.13;1.48;;;24.60;57.30;;;;;;5011539;28;23733;-58
2023/08/08 08:55:02;;;;;;;2.67;1.20;;;24.80;54.50;;;;;;5018328;28;23430;-58
2023/08/08 08:57:29;;;;;;;1.33;1.05;;;25.00;52.80;;;;;;5044438;28;22949;-58
2023/08/08 08:59:55;;;;;;;4.47;1.45;;;25.40;54.10;;;;;;5019261;28;24483;-58
2023/08/08 09:02:21;;;;;;;11.10;1.70;;;25.70;52.20;;;;;;4990594;28;32179;-58
2023/08/08 09:04:48;;;;;;;3.55;1.40;;;26.00;50.70;;;;;;5002256;28;32747;-58
2023/08/08 09:07:16;;;;;;;2.65;1.20;;;26.20;48.80;;;;;;4996027;28;35310;-59
2023/08/08 09:09:45;;;;;;;4.40;1.80;;;24.50;46.70;;;;;;4982232;28;35195;-58
2023/08/08 09:12:12;;;;;;;5.05;1.50;;;25.40;47.40;;;;;;4987017;28;24918;-58
2023/08/08 09:14:41;;;;;;;8.73;2.33;;;25.20;48.20;;;;;;4979808;28;24940;-58
2023/08/08 09:17:13;;;;;;;2.40;1.10;;;25.10;48.20;;;;;;5018594;28;24522;-58
2023/08/08 09:19:42;;;;;;;1.52;1.10;;;25.60;47.90;;;;;;4999545;28;24720;-59
2023/08/08 09:22:08;;;;;;;5.93;1.40;;;24.90;43.50;;;;;;5029581;28;24703;-59
2023/08/08 09:24:41;;;;;;;4.82;1.80;;;25.30;44.70;;;;;;5024684;28;37231;-58
2023/08/08 09:27:09;;;;;;;2.30;1.20;;;25.00;47.90;;;;;;4998111;28;24687;-59
2023/08/08 09:29:36;;;;;;;5.30;1.10;;;25.30;44.10;;;;;;4949138;28;24905;-59
2023/08/08 09:32:06;;;;;;;6.88;1.42;;;24.90;46.50;;;;;;4961291;28;39471;-58
2023/08/08 09:34:32;;;;;;;3.10;1.17;;;24.70;49.50;;;;;;4963844;28;24983;-58
2023/08/08 09:36:59;;;;;;;2.60;1.77;;;24.90;45.20;;;;;;4990989;28;40415;-58
2023/08/08 09:39:28;;;;;;;2.92;1.60;;;24.70;49.40;;;;;;5010849;28;24957;-58
2023/08/08 09:41:56;;;;;;;1.88;1.05;;;24.80;50.30;;;;;;5023437;28;24684;-58
2023/08/08 09:44:28;;;;;;;5.07;1.63;;;24.90;49.40;;;;;;5022289;28;24872;-58
2023/08/08 09:46:55;;;;;;;5.43;1.60;;;24.50;50.20;;;;;;5027523;28;43235;-58
2023/08/08 09:49:22;;;;;;;4.25;1.42;;;25.00;48.70;;;;;;5033606;28;25437;-58
2023/08/08 09:51:49;;;;;;;1.27;1.10;;;25.10;46.90;;;;;;5022735;28;44659;-58
2023/08/08 09:54:16;;;;;;;1.58;1.00;;;25.10;47.00;;;;;;5010280;28;28110;-58
2023/08/08 09:56:43;;;;;;;4.95;1.67;;;25.60;44.70;;;;;;5009814;28;28577;-58
2023/08/08 09:59:11;;;;;;;3.85;2.00;;;26.00;43.20;;;;;;4999036;28;30178;-59
2023/08/08 10:01:39;;;;;;;4.10;1.70;;;26.10;45.30;;;;;;4999241;28;46014;-58
2023/08/08 10:04:06;;;;;;;5.00;1.83;;;26.10;43.30;;;;;;5028850;28;30970;-58
2023/08/08 10:06:33;;;;;;;3.03;0.90;;;26.00;44.30;;;;;;5008713;28;47357;-59
2023/08/08 10:09:01;;;;;;;3.63;1.33;;;25.30;41.40;;;;;;5012145;28;48056;-58
2023/08/08 10:11:30;;;;;;;3.72;1.70;;;24.70;38.80;;;;;;5025120;28;48115;-59
2023/08/08 10:14:01;;;;;;;4.38;1.70;;;24.50;43.90;;;;;;4919637;28;26104;-59
2023/08/08 10:16:27;;;;;;;4.97;1.80;;;24.90;46.70;;;;;;4937050;28;27487;-58
2023/08/08 10:18:59;;;;;;;3.28;1.02;;;25.30;43.60;;;;;;4945183;28;27774;-58
2023/08/08 10:21:26;;;;;;;2.50;0.90;;;26.00;44.80;;;;;;4918225;28;27881;-58
2023/08/08 10:24:03;;;;;;;4.63;1.00;;;26.30;42.30;;;;;;4988302;28;28958;-59
2023/08/08 10:26:29;;;;;;;3.53;1.20;;;26.50;42.20;;;;;;4994395;28;25814;-58
2023/08/08 10:28:57;;;;;;;2.55;0.90;;;27.30;44.10;;;;;;4914901;28;29292;-59
2023/08/08 10:31:23;;;;;;;2.55;1.20;;;27.90;44.30;;;;;;4906092;28;25462;-58
2023/08/08 10:33:49;;;;;;;1.98;1.00;;;28.40;41.00;;;;;;4877168;28;24719;-58
2023/08/08 10:36:16;;;;;;;1.63;1.10;;;28.80;39.40;;;;;;4869576;28;24820;-58
2023/08/08 10:38:46;;;;;;;1.67;1.08;;;28.60;36.60;;;;;;4868275;28;24818;-59
2023/08/08 10:41:15;;;;;;;4.03;1.55;;;28.60;37.20;;;;;;4908872;28;35170;-59
2023/08/08 10:43:52;;;;;;;2.73;1.10;;;28.60;37.50;;;;;;4869129;28;31422;-60
2023/08/08 10:46:27;;;;;;;1.58;0.95;;;28.60;37.80;;;;;;4930044;28;24940;-59
2023/08/08 10:48:55;;;;;;;2.80;1.35;;;27.10;34.80;;;;;;4942458;28;24936;-58
2023/08/08 10:51:21;;;;;;;4.07;1.75;;;26.50;36.70;;;;;;4991579;28;25387;-59
2023/08/08 10:53:51;;;;;;;3.80;1.63;;;26.30;38.50;;;;;;4988693;28;25240;-59
2023/08/08 10:56:19;;;;;;;1.00;0.85;;;26.10;39.20;;;;;;5024715;28;24950;-59
2023/08/08 10:58:49;;;;;;;1.73;0.88;;;25.30;41.30;;;;;;5010464;28;35848;-59
2023/08/08 11:01:16;;;;;;;6.00;1.63;;;24.80;44.60;;;;;;5028469;28;35817;-60
2023/08/08 11:03:43;;;;;;;4.75;1.67;;;24.80;43.60;;;;;;5019504;28;24924;-58
2023/08/08 11:06:11;;;;;;;2.70;1.20;;;24.20;44.00;;;;;;5020232;28;24698;-58
2023/08/08 11:08:38;;;;;;;2.00;0.70;;;23.90;41.80;;;;;;5010971;28;36974;-59
2023/08/08 11:13:41;;;;;;;2.20;1.30;;;25.00;43.30;;;;;;5154350;27;20138;-56
2023/08/08 11:16:07;;;;;;;1.80;1.00;;;25.40;40.50;;;;;;5140405;27;20047;-57
2023/08/08 11:18:33;;;;;;;1.38;0.80;;;25.30;39.30;;;;;;5106834;28;20048;-57
2023/08/08 11:20:59;;;;;;;3.03;1.33;;;26.30;38.00;;;;;;5105274;28;20048;-57
2023/08/08 11:23:25;;;;;;;1.23;0.70;;;27.10;39.20;;;;;;5080459;28;20481;-57
2023/08/08 11:25:51;;;;;;;3.85;1.05;;;26.20;35.10;;;;;;5071747;28;20060;-57
2023/08/08 11:28:17;;;;;;;3.42;1.13;;;26.30;41.40;;;;;;5083644;28;20047;-57
2023/08/08 11:30:45;;;;;;;2.30;1.30;;;27.10;36.90;;;;;;5077486;28;20109;-57
2023/08/08 11:33:15;;;;;;;4.70;1.13;;;26.90;35.80;;;;;;5077161;28;20300;-57
2023/08/08 11:35:46;;;;;;;2.08;0.80;;;25.90;36.20;;;;;;5036857;28;20131;-57
2023/08/08 11:38:14;;;;;;;1.00;0.88;;;25.70;39.20;;;;;;5043005;28;20045;-57
2023/08/08 11:40:40;;;;;;;8.75;1.30;;;24.30;40.90;;;;;;5050257;28;20036;-57
2023/08/08 11:43:07;;;;;;;7.05;1.52;;;24.30;42.70;;;;;;5038720;28;20053;-57
2023/08/08 11:45:34;;;;;;;2.22;1.10;;;24.40;42.90;;;;;;5088661;28;20050;-57
2023/08/08 11:48:01;;;;;;;1.83;0.88;;;25.10;41.90;;;;;;5101107;28;20122;-57
2023/08/08 11:50:28;;;;;;;1.17;0.70;;;25.30;39.50;;;;;;5097417;28;20040;-57
2023/08/08 11:52:55;;;;;;;5.82;1.63;;;25.40;39.50;;;;;;5096758;28;20060;-57
2023/08/08 11:55:28;;;;;;;1.15;0.80;;;26.00;38.20;;;;;;5088235;28;20122;-57
2023/08/08 11:57:56;;;;;;;1.05;0.63;;;26.60;37.60;;;;;;4982919;28;20121;-57
2023/08/08 12:00:29;;;;;;;2.08;0.90;;;26.00;35.10;;;;;;4994429;28;20042;-57
2023/08/08 12:02:55;;;;;;;2.97;0.98;;;26.50;37.40;;;;;;5077210;28;20634;-56
2023/08/08 12:05:22;;;;;;;1.15;0.80;;;26.60;37.50;;;;;;5098537;28;20091;-57
2023/08/08 12:07:50;;;;;;;1.30;0.90;;;26.20;37.30;;;;;;5097053;28;20101;-57
2023/08/08 12:10:26;;;;;;;4.63;1.70;;;26.30;42.70;;;;;;5091133;28;20041;-57
2023/08/08 12:12:55;;;;;;;8.93;1.85;;;26.80;38.70;;;;;;5032921;28;20059;-57
2023/08/08 12:15:21;;;;;;;2.78;0.98;;;26.00;38.70;;;;;;5081072;28;20047;-57
2023/08/08 12:17:55;;;;;;;2.63;1.00;;;26.00;36.90;;;;;;5066739;28;20481;-57
2023/08/08 12:20:22;;;;;;;1.95;0.80;;;25.90;37.80;;;;;;5068364;28;20036;-57
2023/08/08 12:22:48;;;;;;;1.95;0.80;;;26.00;36.90;;;;;;5014920;28;20511;-57
2023/08/08 12:25:14;;;;;;;1.85;0.90;;;26.80;36.90;;;;;;4968286;28;20053;-57
2023/08/08 12:27:40;;;;;;;1.85;0.85;;;27.30;39.60;;;;;;5043703;28;20120;-57
2023/08/08 12:30:07;;;;;;;2.97;1.00;;;28.00;40.20;;;;;;5024340;28;20040;-57
2023/08/08 12:32:33;;;;;;;3.58;1.33;;;28.70;38.60;;;;;;5005897;28;20078;-57
2023/08/08 12:34:59;;;;;;;2.15;1.30;;;28.50;36.50;;;;;;5021736;28;20537;-57
2023/08/08 12:37:25;;;;;;;14.93;2.67;;;27.40;33.50;;;;;;5025422;28;20050;-57
2023/08/08 12:39:59;;;;;;;4.97;1.30;;;26.90;37.70;;;;;;5013257;28;20521;-56